Hazen, Arkansas
Current Conditions -  °F | °C
As of 1:15 AM on Friday 19 Dec 2014 (Local Time) from KSGT Reporting Station
Overcast Overcast  
Wind Chill: 38°   Ceiling: 400
Heat Index: 43°   Visibility: NA
Dew Point: 39°   Wind: 8mph
Humidity: 87%   Direction: 30°NNE
Pressure: 30.22"   Gusts: NA
Location:  34.78°N, 91.58°W
Report Text: KSGT 190715Z 03007KT OVC004 06/04 A3022 RMK AO1
Loading
Personal Weather Stations






























Interactive Weather Map New forecast layout! Learn more

10-Day Weather Forecast

Advertisements
Track Severe Weather on mobile